CDT,Max TemperatureF,Mean TemperatureF,Min TemperatureF,Max Dew PointF,MeanDew PointF,Min DewpointF,Max Humidity, Mean Humidity, Min Humidity, Max Sea Level PressureIn, Mean Sea Level PressureIn, Min Sea Level PressureIn, Max VisibilityMiles, Mean VisibilityMiles, Min VisibilityMiles, Max Wind SpeedMPH, Mean Wind SpeedMPH, Max Gust SpeedMPH,PrecipitationIn, CloudCover, Events, WindDirDegrees
2012-10-1,70,60,51,48,43,39,71,53,36,29.95,29.90,29.83,10,10,10,20,8,25,0.00,1,,339
2012-10-2,73,58,45,46,40,35,80,54,26,29.99,29.92,29.85,10,10,9,12,5,,0.00,0,,153
2012-10-3,79,62,46,47,44,40,93,57,25,29.93,29.89,29.83,10,10,7,12,5,18,0.00,0,,139
2012-10-4,62,52,43,45,35,28,71,56,46,30.17,29.99,29.77,10,10,10,28,16,37,0.00,6,,256
2012-10-5,48,42,37,29,26,24,65,53,41,30.17,30.15,30.12,10,10,10,23,17,34,0.00,5,,288
2012-10-6,44,40,37,30,25,21,76,59,40,30.30,30.24,30.16,10,10,10,16,12,23,0.00,8,,321
2012-10-7,53,40,26,25,22,16,84,51,23,30.24,30.10,29.92,10,10,10,15,5,24,0.00,0,,213
2012-10-8,64,50,35,39,31,25,70,50,29,29.90,29.75,29.60,10,10,10,18,9,23,0.00,4,,185
2012-10-9,52,45,39,40,32,24,80,58,41,30.00,29.83,29.73,10,10,8,24,8,36,0.02,6,Rain,281
2012-10-10,53,42,33,28,25,22,73,50,33,30.12,30.04,29.86,10,10,10,14,10,20,0.00,3,,266
2012-10-11,55,46,34,34,25,13,73,45,23,30.42,30.12,29.82,10,10,10,21,11,24,0.00,3,,325
2012-10-12,54,41,28,28,20,12,82,49,19,30.48,30.34,30.07,10,10,9,16,5,24,0.00,1,,153
2012-10-13,53,50,48,52,45,25,96,85,39,30.03,29.80,29.70,10,5,1,16,7,,0.04,8,Rain,116
2012-10-14,59,52,45,47,41,29,90,72,32,29.88,29.78,29.73,10,10,7,21,9,28,0.00,5,,344
2012-10-15,62,50,37,40,35,32,83,57,37,29.97,29.89,29.76,10,10,10,10,5,,0.00,1,,177
2012-10-16,64,58,50,48,45,40,89,64,53,29.73,29.53,29.38,10,10,9,13,8,,0.00,1,Rain,142
2012-10-17,64,56,48,50,45,39,93,72,49,29.36,29.26,29.16,10,9,6,25,8,33,0.00,6,Rain,217
2012-10-18,50,47,44,43,42,39,93,85,68,29.40,29.25,29.18,10,8,2,9,5,,0.00,7,Rain,235
2012-10-19,52,46,39,46,43,36,93,85,63,29.75,29.59,29.42,10,7,1,12,3,,0.11,7,Rain,5
2012-10-20,55,44,33,43,39,33,100,87,59,29.86,29.81,29.75,10,5,0,13,2,,0.00,5,Fog,160
2012-10-21,72,58,43,50,44,40,89,69,40,29.89,29.84,29.78,10,10,8,15,8,,0.00,1,,136
2012-10-22,64,58,51,52,46,44,82,67,50,29.96,29.91,29.88,10,10,10,15,5,21,0.00,6,,50
2012-10-23,63,31,0,61,55,35,100,92,82,29.86,29.76,29.70,9,3,0,15,6,,0.00,8,Fog-Rain,132
2012-10-24,59,30,0,55,55,55,88,88,87,29.86,29.80,29.74,10,4,2,13,4,22,0.07,8,Rain-Thunderstorm,339
2012-10-25,41,39,37,39,32,25,93,78,56,30.15,29.83,29.68,10,7,2,24,16,32,0.60,8,Rain-Snow-Thunderstorm,319
2012-10-26,39,36,33,25,23,20,70,57,46,30.38,30.33,30.17,10,10,10,22,14,28,0.00,5,,274
2012-10-27,44,36,30,27,23,18,79,61,37,30.41,30.37,30.32,10,10,10,10,3,17,0.00,2,,246
2012-10-28,46,37,28,28,25,22,89,65,37,30.39,30.35,30.31,10,10,8,12,4,,0.00,3,,166
2012-10-29,46,38,30,27,26,24,82,62,46,30.37,30.33,30.27,10,10,10,8,4,,0.00,5,,134
2012-10-30,50,40,30,30,23,17,75,55,35,30.27,30.18,30.10,10,10,10,15,4,21,0.00,0,,352
2012-10-31,51,38,26,28,19,13,69,51,22,30.10,30.03,29.95,10,10,10,12,5,,0.00,1,,312